createdAt,value
2022-11-04T00:01:55.085Z,7.97
2022-11-04T00:04:23.375Z,8.97
2022-11-04T00:06:50.766Z,9.93
2022-11-04T00:09:19.693Z,8.27
2022-11-04T00:12:05.349Z,8.97
2022-11-04T00:14:32.983Z,9.57
2022-11-04T00:17:18.652Z,8.23
2022-11-04T00:20:05.557Z,9.23
2022-11-04T00:22:51.487Z,6.93
2022-11-04T00:25:37.489Z,11.10
2022-11-04T00:28:29.829Z,9.27
2022-11-04T00:30:57.932Z,10.43
2022-11-04T00:33:27.969Z,10.53
2022-11-04T00:35:56.356Z,11.40
2022-11-04T00:38:24.264Z,10.33
2022-11-04T00:40:51.373Z,10.13
2022-11-04T00:43:18.513Z,10.67
2022-11-04T00:45:45.630Z,9.10
2022-11-04T00:48:12.728Z,10.80
2022-11-04T00:50:39.852Z,10.90
2022-11-04T00:53:07.269Z,10.40
2022-11-04T00:55:34.661Z,12.13
2022-11-04T00:58:01.732Z,11.13
2022-11-04T01:00:29.198Z,12.37
2022-11-04T01:02:56.815Z,10.73
2022-11-04T01:05:23.987Z,11.83
2022-11-04T01:07:51.067Z,15.37
2022-11-04T01:10:18.186Z,12.60
2022-11-04T01:12:45.235Z,11.23
2022-11-04T01:15:12.890Z,9.70
2022-11-04T01:17:39.975Z,10.57
2022-11-04T01:20:07.326Z,13.17
2022-11-04T01:22:34.368Z,13.17
2022-11-04T01:25:01.426Z,13.17
2022-11-04T01:27:28.457Z,12.20
2022-11-04T01:29:55.517Z,13.83
2022-11-04T01:32:22.531Z,12.13
2022-11-04T01:34:49.561Z,16.97
2022-11-04T01:37:16.627Z,14.07
2022-11-04T01:39:44.255Z,14.03
2022-11-04T01:42:14.155Z,17.20
2022-11-04T01:44:52.026Z,16.23
2022-11-04T01:47:24.991Z,15.30
2022-11-04T01:49:54.749Z,14.50
2022-11-04T01:52:27.353Z,20.90
2022-11-04T01:54:55.277Z,15.87
2022-11-04T01:57:27.996Z,17.63
2022-11-04T01:59:55.690Z,17.53
2022-11-04T02:02:22.948Z,17.30
2022-11-04T02:04:50.125Z,16.53
2022-11-04T02:07:17.276Z,16.13
2022-11-04T02:09:44.792Z,17.53
2022-11-04T02:12:30.738Z,16.73
2022-11-04T02:14:58.854Z,17.07
2022-11-04T02:17:36.846Z,16.87
2022-11-04T02:20:06.934Z,16.33
2022-11-04T02:22:52.546Z,17.87
2022-11-04T02:25:31.769Z,17.47
2022-11-04T02:28:01.623Z,18.03
2022-11-04T02:30:30.944Z,16.50
2022-11-04T02:33:06.954Z,17.70
2022-11-04T02:35:40.690Z,18.77
2022-11-04T02:38:07.751Z,18.53
2022-11-04T02:40:40.907Z,16.93
2022-11-04T02:43:22.619Z,15.77
2022-11-04T02:45:51.138Z,16.23
2022-11-04T02:48:25.138Z,21.30
2022-11-04T02:50:57.807Z,16.27
2022-11-04T02:53:30.310Z,17.20
2022-11-04T02:55:58.551Z,17.90
2022-11-04T02:58:31.300Z,17.13
2022-11-04T03:00:59.491Z,20.20
2022-11-04T03:03:28.300Z,18.63
2022-11-04T03:05:57.186Z,22.90
2022-11-04T03:08:29.934Z,19.90
2022-11-04T03:11:03.299Z,20.93
2022-11-04T03:13:34.651Z,19.60
2022-11-04T03:16:04.250Z,19.73
2022-11-04T03:18:37.647Z,20.50
2022-11-04T03:21:07.966Z,16.87
2022-11-04T03:23:35.228Z,23.40
2022-11-04T03:26:07.993Z,20.63
2022-11-04T03:28:41.971Z,19.53
2022-11-04T03:31:14.048Z,17.13
2022-11-04T03:33:43.799Z,18.70
2022-11-04T03:36:10.936Z,18.43
2022-11-04T03:38:38.787Z,19.87
2022-11-04T03:41:11.114Z,19.07
2022-11-04T03:43:38.661Z,16.00
2022-11-04T03:46:06.153Z,14.87
2022-11-04T03:48:33.258Z,17.33
2022-11-04T03:51:01.234Z,19.67
2022-11-04T03:53:29.428Z,20.57
2022-11-04T03:56:09.729Z,16.47
2022-11-04T03:58:54.854Z,15.30
2022-11-04T04:01:27.878Z,23.40
2022-11-04T04:04:04.657Z,18.23
2022-11-04T04:06:33.511Z,23.20
2022-11-04T04:09:05.183Z,17.23
2022-11-04T04:11:41.069Z,17.23
2022-11-04T04:14:33.841Z,19.07
2022-11-04T04:17:01.338Z,17.53
2022-11-04T04:19:28.745Z,17.73
2022-11-04T04:22:07.744Z,21.57
2022-11-04T04:24:55.537Z,21.83
2022-11-04T04:27:33.032Z,19.80
2022-11-04T04:30:02.447Z,16.63
2022-11-04T04:32:30.783Z,19.53
2022-11-04T04:35:30.161Z,20.80
2022-11-04T04:38:20.908Z,21.23
2022-11-04T04:41:21.403Z,17.57
2022-11-04T04:44:07.476Z,19.03
2022-11-04T04:46:34.887Z,20.83
2022-11-04T04:49:05.776Z,21.27
2022-11-04T04:51:33.130Z,18.90
2022-11-04T04:54:00.147Z,22.23
2022-11-04T04:56:27.183Z,21.67
2022-11-04T04:58:54.266Z,22.90
2022-11-04T05:01:21.406Z,19.97
2022-11-04T05:03:48.579Z,22.73
2022-11-04T05:06:15.611Z,21.07
2022-11-04T05:08:42.661Z,19.27
2022-11-04T05:11:09.838Z,20.23
2022-11-04T05:13:37.091Z,21.43
2022-11-04T05:16:05.441Z,23.23
2022-11-04T05:18:32.537Z,25.17
2022-11-04T05:20:59.662Z,28.50
2022-11-04T05:23:26.712Z,32.13
2022-11-04T05:25:53.750Z,36.90
2022-11-04T05:28:20.865Z,34.83
2022-11-04T05:30:47.932Z,31.80
2022-11-04T05:33:14.988Z,39.53
2022-11-04T05:35:42.013Z,40.00
2022-11-04T05:38:09.066Z,37.17
2022-11-04T05:40:36.127Z,39.37
2022-11-04T05:43:03.211Z,40.13
2022-11-04T05:45:30.280Z,42.93
2022-11-04T05:48:01.079Z,43.20
2022-11-04T05:50:28.768Z,40.80
2022-11-04T05:52:58.146Z,41.93
2022-11-04T05:55:25.619Z,44.43
2022-11-04T05:57:52.915Z,38.40
2022-11-04T06:00:20.139Z,46.23
2022-11-04T06:02:47.691Z,43.47
2022-11-04T06:05:14.835Z,37.77
2022-11-04T06:07:41.914Z,40.07
2022-11-04T06:10:09.250Z,46.80
2022-11-04T06:12:36.380Z,45.10
2022-11-04T06:15:03.567Z,45.93
2022-11-04T06:17:30.615Z,39.80
2022-11-04T06:19:57.653Z,47.87
2022-11-04T06:22:24.721Z,48.60
2022-11-04T06:24:51.828Z,43.00
2022-11-04T06:27:18.850Z,52.50
2022-11-04T06:29:47.138Z,44.33
2022-11-04T06:32:16.426Z,47.40
2022-11-04T06:34:43.517Z,47.60
2022-11-04T06:37:10.962Z,43.00
2022-11-04T06:39:38.393Z,42.20
2022-11-04T06:42:05.952Z,40.77
2022-11-04T06:44:34.676Z,42.80
2022-11-04T06:47:01.854Z,39.90
2022-11-04T06:49:28.965Z,40.83
2022-11-04T06:51:55.992Z,36.43
2022-11-04T06:54:23.043Z,42.00
2022-11-04T06:56:50.320Z,41.83
2022-11-04T06:59:18.555Z,38.03
2022-11-04T07:01:45.677Z,31.73
2022-11-04T07:04:12.965Z,38.57
2022-11-04T07:06:44.161Z,32.00
2022-11-04T07:09:12.771Z,25.47
2022-11-04T07:11:39.858Z,24.60
2022-11-04T07:14:08.733Z,26.20
2022-11-04T07:16:35.797Z,29.17
2022-11-04T07:19:02.944Z,20.33
2022-11-04T07:21:30.132Z,19.50
2022-11-04T07:23:57.154Z,17.53
2022-11-04T07:26:24.356Z,16.80
2022-11-04T07:28:51.474Z,15.87
2022-11-04T07:31:18.564Z,17.37
2022-11-04T07:33:49.931Z,16.47
2022-11-04T07:36:17.528Z,17.83
2022-11-04T07:38:45.012Z,15.63
2022-11-04T07:41:12.483Z,14.20
2022-11-04T07:43:39.540Z,16.13
2022-11-04T07:46:11.020Z,14.53
2022-11-04T07:48:38.176Z,15.33
2022-11-04T07:51:06.530Z,14.60
2022-11-04T07:53:34.267Z,12.60
2022-11-04T07:56:04.203Z,14.47
2022-11-04T07:58:31.343Z,12.97
2022-11-04T08:00:59.616Z,13.77
2022-11-04T08:03:26.838Z,12.70
2022-11-04T08:05:57.534Z,13.07
2022-11-04T08:08:24.675Z,16.97
2022-11-04T08:10:56.982Z,13.83
2022-11-04T08:13:24.254Z,11.93
2022-11-04T08:15:51.315Z,11.90
2022-11-04T08:18:18.344Z,10.27
2022-11-04T08:20:52.326Z,9.40
2022-11-04T08:23:19.447Z,11.47
2022-11-04T08:25:47.252Z,13.03
2022-11-04T08:28:17.593Z,15.67
2022-11-04T08:30:59.207Z,13.93
2022-11-04T08:33:26.922Z,12.63
2022-11-04T08:35:54.678Z,10.30
2022-11-04T08:38:21.891Z,7.57
2022-11-04T08:40:49.212Z,10.07
2022-11-04T08:43:16.384Z,8.73
2022-11-04T08:45:45.275Z,6.10
2022-11-04T08:48:13.368Z,7.43
2022-11-04T08:50:40.898Z,5.80
2022-11-04T08:53:08.263Z,5.23
2022-11-04T08:55:35.836Z,6.27
2022-11-04T08:58:03.034Z,6.13
2022-11-04T09:00:30.121Z,7.57
2022-11-04T09:02:57.161Z,6.17
2022-11-04T09:05:24.207Z,8.67
2022-11-04T09:07:51.447Z,6.67
2022-11-04T09:10:18.821Z,6.13
2022-11-04T09:12:46.099Z,5.20
2022-11-04T09:15:13.347Z,7.53
2022-11-04T09:17:40.685Z,8.83
2022-11-04T09:20:08.099Z,6.23
2022-11-04T09:22:35.207Z,4.93
2022-11-04T09:25:02.352Z,6.80
2022-11-04T09:27:29.828Z,5.73
2022-11-04T09:29:56.849Z,5.10
2022-11-04T09:32:23.914Z,4.60
2022-11-04T09:34:51.006Z,5.90
2022-11-04T09:37:18.087Z,6.27
2022-11-04T09:39:48.838Z,5.57
2022-11-04T09:42:31.500Z,5.27
2022-11-04T09:45:21.225Z,7.23
2022-11-04T09:47:51.437Z,8.07
2022-11-04T09:50:23.597Z,4.73
2022-11-04T09:52:55.005Z,5.10
2022-11-04T09:58:01.708Z,5.73
2022-11-04T10:00:31.959Z,4.97
2022-11-04T10:03:17.810Z,7.13
2022-11-04T10:05:44.876Z,7.17
2022-11-04T10:08:44.162Z,6.93
2022-11-04T10:11:34.042Z,7.30
2022-11-04T10:14:08.846Z,7.67
2022-11-04T10:16:59.055Z,4.77
2022-11-04T10:19:41.506Z,6.37
2022-11-04T10:22:16.190Z,6.23
2022-11-04T10:24:47.337Z,6.10
2022-11-04T10:27:19.051Z,7.67
2022-11-04T10:29:47.901Z,7.20
2022-11-04T10:32:22.543Z,6.70
2022-11-04T10:34:55.032Z,7.30
2022-11-04T10:37:22.173Z,5.23
2022-11-04T10:39:49.282Z,5.10
2022-11-04T10:42:18.006Z,5.20
2022-11-04T10:44:46.108Z,5.97
2022-11-04T10:47:32.078Z,4.50
2022-11-04T10:50:35.135Z,5.63
2022-11-04T10:52:55.435Z,6.23
2022-11-04T10:55:58.008Z,4.57
2022-11-04T10:58:26.931Z,3.63
2022-11-04T11:00:54.739Z,7.23
2022-11-04T11:03:34.888Z,5.37
2022-11-04T11:06:14.524Z,3.20
2022-11-04T11:08:42.311Z,4.13
2022-11-04T11:11:10.331Z,5.67
2022-11-04T11:13:38.877Z,3.63
2022-11-04T11:16:11.688Z,3.60
2022-11-04T11:18:39.778Z,5.37
2022-11-04T11:21:07.780Z,5.60
2022-11-04T11:23:47.383Z,5.17
2022-11-04T11:26:17.087Z,5.37
2022-11-04T11:28:50.443Z,5.63
2022-11-04T11:31:26.656Z,6.70
2022-11-04T11:33:56.552Z,5.00
2022-11-04T11:36:28.808Z,5.97
2022-11-04T11:39:05.530Z,4.30
2022-11-04T11:41:34.752Z,5.53
2022-11-04T11:44:05.576Z,5.67
2022-11-04T11:46:34.003Z,4.30
2022-11-04T11:49:04.914Z,5.87
2022-11-04T11:51:33.686Z,4.60
2022-11-04T11:54:14.126Z,4.20
2022-11-04T11:57:07.321Z,4.17
2022-11-04T12:02:25.432Z,4.17
2022-11-04T12:10:51.316Z,3.43
2022-11-04T12:13:25.281Z,3.83
2022-11-04T12:16:02.978Z,4.67
2022-11-04T12:18:39.037Z,3.83
2022-11-04T12:21:19.072Z,3.87
2022-11-04T12:23:46.275Z,4.27
2022-11-04T12:26:32.046Z,4.50
2022-11-04T12:28:59.097Z,3.10
2022-11-04T12:31:44.671Z,6.73
2022-11-04T12:34:11.675Z,3.77
2022-11-04T12:36:54.165Z,3.97
2022-11-04T12:39:24.322Z,4.00
2022-11-04T12:42:21.139Z,4.20
2022-11-04T12:44:52.252Z,3.53
2022-11-04T12:47:19.322Z,6.17
2022-11-04T12:49:52.826Z,4.93
2022-11-04T12:52:42.021Z,7.57
2022-11-04T12:55:28.042Z,3.83
2022-11-04T12:57:58.477Z,4.80
2022-11-04T13:00:28.118Z,4.37
2022-11-04T13:02:57.923Z,3.60
2022-11-04T13:05:43.541Z,5.43
2022-11-04T13:08:23.574Z,4.53
2022-11-04T13:10:56.357Z,4.20
2022-11-04T13:13:27.406Z,3.90
2022-11-04T13:15:59.233Z,3.80
2022-11-04T13:18:27.354Z,4.10
2022-11-04T13:21:03.986Z,5.33
2022-11-04T13:23:39.917Z,6.13
2022-11-04T13:26:11.018Z,5.40
2022-11-04T13:28:41.398Z,4.53
2022-11-04T13:31:12.368Z,4.50
2022-11-04T13:33:52.767Z,5.90
2022-11-04T13:36:34.007Z,8.30
2022-11-04T13:39:07.180Z,5.40
2022-11-04T13:41:46.207Z,6.37
2022-11-04T13:44:25.526Z,6.00
2022-11-04T13:46:55.325Z,5.47
2022-11-04T13:49:30.703Z,5.23
2022-11-04T13:52:02.449Z,4.97
2022-11-04T13:54:39.093Z,5.10
2022-11-04T13:57:06.325Z,4.73
2022-11-04T13:59:33.755Z,4.47
2022-11-04T14:02:23.863Z,3.70
2022-11-04T14:04:50.993Z,4.27
2022-11-04T14:07:18.592Z,4.97
2022-11-04T14:09:45.701Z,5.70
2022-11-04T14:12:18.704Z,3.70
2022-11-04T14:14:48.777Z,5.00
2022-11-04T14:17:34.094Z,3.63
2022-11-04T14:20:01.227Z,5.57
2022-11-04T14:22:33.229Z,6.27
2022-11-04T14:25:02.475Z,8.43
2022-11-04T14:27:41.135Z,8.83
2022-11-04T14:30:27.150Z,6.90
2022-11-04T14:32:57.448Z,6.33
2022-11-04T14:35:25.278Z,5.07
2022-11-04T14:37:55.998Z,6.17
2022-11-04T14:40:27.765Z,6.70
2022-11-04T14:42:56.346Z,7.23
2022-11-04T14:45:25.065Z,7.50
2022-11-04T14:47:54.419Z,9.20
2022-11-04T14:50:24.833Z,8.90
2022-11-04T14:52:56.900Z,6.43
2022-11-04T14:55:26.522Z,7.90
2022-11-04T14:57:54.795Z,6.70
2022-11-04T15:00:34.693Z,8.63
2022-11-04T15:03:27.607Z,6.50
2022-11-04T15:06:03.371Z,6.67
2022-11-04T15:08:36.550Z,6.80
2022-11-04T15:11:17.911Z,6.67
2022-11-04T15:13:49.258Z,8.57
2022-11-04T15:16:24.336Z,7.47
2022-11-04T15:18:52.405Z,6.80
2022-11-04T15:21:19.477Z,6.07
2022-11-04T15:23:48.229Z,6.23
2022-11-04T15:26:25.089Z,6.70
2022-11-04T15:28:55.947Z,6.50
2022-11-04T15:31:25.115Z,6.30
2022-11-04T15:33:59.655Z,5.67
2022-11-04T15:36:34.395Z,6.87
2022-11-04T15:39:07.595Z,7.63
2022-11-04T15:41:54.018Z,5.20
2022-11-04T15:44:23.345Z,8.37
2022-11-04T15:46:51.853Z,5.97
2022-11-04T15:49:21.421Z,8.57
2022-11-04T15:51:49.149Z,7.00
2022-11-04T15:54:21.284Z,6.10
2022-11-04T15:56:50.788Z,7.20
2022-11-04T15:59:21.625Z,6.43
2022-11-04T16:01:50.112Z,6.03
2022-11-04T16:04:18.271Z,9.07
2022-11-04T16:06:47.841Z,6.87
2022-11-04T16:09:22.847Z,9.93
2022-11-04T16:12:06.494Z,7.10
2022-11-04T16:14:33.594Z,9.53
2022-11-04T16:17:00.741Z,7.77
2022-11-04T16:19:29.514Z,7.47
2022-11-04T16:22:04.175Z,8.27
2022-11-04T16:24:32.678Z,8.10
2022-11-04T16:27:00.142Z,9.33
2022-11-04T16:29:34.301Z,7.57
2022-11-04T16:32:07.079Z,9.03
2022-11-04T16:34:34.303Z,10.70
2022-11-04T16:37:01.519Z,9.50
2022-11-04T16:39:28.561Z,10.17
2022-11-04T16:41:56.697Z,10.13
2022-11-04T16:44:24.770Z,10.43
2022-11-04T16:46:51.965Z,10.40
2022-11-04T16:49:20.549Z,12.17
2022-11-04T16:51:49.508Z,7.97
2022-11-04T16:54:16.636Z,11.93
2022-11-04T16:56:45.400Z,11.07
2022-11-04T16:59:12.848Z,9.30
2022-11-04T17:01:40.624Z,8.83
2022-11-04T17:04:08.092Z,8.47
2022-11-04T17:06:35.661Z,7.20
2022-11-04T17:09:02.885Z,11.70
2022-11-04T17:11:30.238Z,10.60
2022-11-04T17:13:57.269Z,8.07
2022-11-04T17:16:24.997Z,8.03
2022-11-04T17:18:52.098Z,8.00
2022-11-04T17:21:20.237Z,7.97
2022-11-04T17:23:47.698Z,8.73
2022-11-04T17:26:14.870Z,10.90
2022-11-04T17:28:42.020Z,10.47
2022-11-04T17:31:10.592Z,8.57
2022-11-04T17:33:37.656Z,8.83
2022-11-04T17:36:07.681Z,8.07
2022-11-04T17:38:35.024Z,11.67
2022-11-04T17:41:20.608Z,7.90
2022-11-04T17:43:59.898Z,8.37
2022-11-04T17:46:41.624Z,14.73
2022-11-04T17:49:08.841Z,9.43
2022-11-04T17:51:36.389Z,8.67
2022-11-04T17:54:04.115Z,8.67
2022-11-04T17:56:31.167Z,11.53
2022-11-04T17:59:01.607Z,8.37
2022-11-04T18:01:29.136Z,10.27
2022-11-04T18:03:56.400Z,11.07
2022-11-04T18:06:23.510Z,8.53
2022-11-04T18:08:52.784Z,9.13
2022-11-04T18:11:38.451Z,8.57
2022-11-04T18:14:05.559Z,9.83
2022-11-04T18:16:32.621Z,10.07
2022-11-04T18:19:00.199Z,10.40
2022-11-04T18:21:27.647Z,8.50
2022-11-04T18:23:57.892Z,8.70
2022-11-04T18:26:25.307Z,9.47
2022-11-04T18:28:52.583Z,8.47
2022-11-04T18:31:25.542Z,8.93
2022-11-04T18:33:52.643Z,9.60
2022-11-04T18:36:19.802Z,8.97
2022-11-04T18:38:47.617Z,8.60
2022-11-04T18:41:14.976Z,8.37
2022-11-04T18:43:42.255Z,8.70
2022-11-04T18:46:13.186Z,10.17
2022-11-04T18:48:40.822Z,7.87
2022-11-04T18:51:09.558Z,12.07
2022-11-04T18:53:37.007Z,9.57
2022-11-04T18:56:05.202Z,8.33
2022-11-04T18:58:35.925Z,10.30
2022-11-04T19:01:08.266Z,10.83
2022-11-04T19:03:35.816Z,9.43
2022-11-04T19:06:09.871Z,12.47
2022-11-04T19:08:39.931Z,10.70
2022-11-04T19:11:15.647Z,12.13
2022-11-04T19:13:43.075Z,12.50
2022-11-04T19:16:11.754Z,10.27
2022-11-04T19:18:39.872Z,10.67
2022-11-04T19:21:08.183Z,11.37
2022-11-04T19:23:35.547Z,9.70
2022-11-04T19:26:22.307Z,10.77
2022-11-04T19:28:50.346Z,9.27
2022-11-04T19:31:20.266Z,9.27
2022-11-04T19:33:47.849Z,8.10
2022-11-04T19:36:16.551Z,11.30
2022-11-04T19:38:46.396Z,9.37
2022-11-04T19:41:33.375Z,9.67
2022-11-04T19:44:01.717Z,10.33
2022-11-04T19:46:28.937Z,10.23
2022-11-04T19:48:59.439Z,11.50
2022-11-04T19:51:31.817Z,9.60
2022-11-04T19:53:59.553Z,11.97
2022-11-04T19:56:26.908Z,13.50
2022-11-04T19:58:54.234Z,9.23
2022-11-04T20:01:21.823Z,12.17
2022-11-04T20:03:49.001Z,11.67
2022-11-04T20:06:17.142Z,10.07
2022-11-04T20:08:45.243Z,12.40
2022-11-04T20:11:13.034Z,9.70
2022-11-04T20:13:49.544Z,13.80
2022-11-04T20:16:16.975Z,12.10
2022-11-04T20:18:44.586Z,13.13
2022-11-04T20:21:11.729Z,12.13
2022-11-04T20:23:39.105Z,10.37
2022-11-04T20:26:12.867Z,12.40
2022-11-04T20:28:42.397Z,12.33
2022-11-04T20:31:10.328Z,12.73
2022-11-04T20:33:38.116Z,10.87
2022-11-04T20:36:05.965Z,10.37
2022-11-04T20:38:33.023Z,13.33
2022-11-04T20:41:15.322Z,13.00
2022-11-04T20:43:42.354Z,9.13
2022-11-04T20:46:10.938Z,10.37
2022-11-04T20:48:38.271Z,9.37
2022-11-04T20:51:12.525Z,10.30
2022-11-04T20:53:39.829Z,11.37
2022-11-04T20:56:08.002Z,9.43
2022-11-04T20:58:35.581Z,10.27
2022-11-04T21:01:03.335Z,10.17
2022-11-04T21:03:30.674Z,9.23
2022-11-04T21:05:58.050Z,10.57
2022-11-04T21:08:25.635Z,9.47
2022-11-04T21:10:56.747Z,9.73
2022-11-04T21:13:23.861Z,9.37
2022-11-04T21:15:52.018Z,11.80
2022-11-04T21:18:19.173Z,9.30
2022-11-04T21:20:46.283Z,9.47
2022-11-04T21:23:14.034Z,12.73
2022-11-04T21:25:51.388Z,10.27
2022-11-04T21:28:18.505Z,14.13
2022-11-04T21:30:46.716Z,14.33
2022-11-04T21:33:14.180Z,12.47
2022-11-04T21:35:43.001Z,8.83
2022-11-04T21:38:11.348Z,12.37
2022-11-04T21:40:38.720Z,10.53
2022-11-04T21:43:05.871Z,8.97
2022-11-04T21:45:34.401Z,11.13
2022-11-04T21:48:01.548Z,9.60
2022-11-04T21:50:28.617Z,8.83
2022-11-04T21:52:55.715Z,10.30
2022-11-04T21:55:22.745Z,9.40
2022-11-04T21:57:49.807Z,7.23
2022-11-04T22:00:17.028Z,9.97
2022-11-04T22:02:44.297Z,9.03
2022-11-04T22:05:11.782Z,8.60
2022-11-04T22:07:58.479Z,8.53
2022-11-04T22:10:26.234Z,9.40
2022-11-04T22:12:53.293Z,9.00
2022-11-04T22:15:39.187Z,7.80
2022-11-04T22:18:06.659Z,8.70
2022-11-04T22:20:36.036Z,8.93
2022-11-04T22:23:03.574Z,9.40
2022-11-04T22:25:30.894Z,11.93
2022-11-04T22:27:57.990Z,10.23
2022-11-04T22:30:25.422Z,9.37
2022-11-04T22:32:53.190Z,11.30
2022-11-04T22:35:20.373Z,9.93
2022-11-04T22:37:47.459Z,10.10
2022-11-04T22:40:14.587Z,8.27
2022-11-04T22:42:43.586Z,9.53
2022-11-04T22:45:16.384Z,8.97
2022-11-04T22:47:43.841Z,10.13
2022-11-04T22:50:11.120Z,10.17
2022-11-04T22:52:38.171Z,7.50
2022-11-04T22:55:05.341Z,9.53
2022-11-04T22:57:32.379Z,9.70
2022-11-04T22:59:59.453Z,8.50
2022-11-04T23:02:28.203Z,11.47
2022-11-04T23:04:58.143Z,10.00
2022-11-04T23:07:25.189Z,9.10
2022-11-04T23:10:10.930Z,9.97
2022-11-04T23:12:56.876Z,9.83
2022-11-04T23:15:42.634Z,9.23
2022-11-04T23:18:31.981Z,8.03
2022-11-04T23:21:18.102Z,9.53
2022-11-04T23:24:04.048Z,10.17
2022-11-04T23:26:31.125Z,10.07
2022-11-04T23:29:16.941Z,10.57
2022-11-04T23:31:43.970Z,9.07
2022-11-04T23:34:29.789Z,7.47
2022-11-04T23:37:12.118Z,9.17
2022-11-04T23:39:39.738Z,7.27
2022-11-04T23:42:16.130Z,9.03
2022-11-04T23:45:12.022Z,9.30
2022-11-04T23:48:00.014Z,9.10
2022-11-04T23:50:47.007Z,10.77
2022-11-04T23:53:33.378Z,7.97
2022-11-04T23:56:19.145Z,8.63
2022-11-04T23:59:05.247Z,9.23
